sensor_id;sensor_type;location;lat;lon;timestamp;temperature;humidity
6664;DHT22;58749;48.022;10.922;2022-09-09T00:01:40;18.30;96.70
6664;DHT22;58749;48.022;10.922;2022-09-09T00:04:15;18.20;96.60
6664;DHT22;58749;48.022;10.922;2022-09-09T00:06:53;18.10;96.60
6664;DHT22;58749;48.022;10.922;2022-09-09T00:09:25;18.00;96.80
6664;DHT22;58749;48.022;10.922;2022-09-09T00:12:00;17.90;96.90
6664;DHT22;58749;48.022;10.922;2022-09-09T00:14:37;17.90;97.00
6664;DHT22;58749;48.022;10.922;2022-09-09T00:17:11;17.80;97.10
6664;DHT22;58749;48.022;10.922;2022-09-09T00:19:44;17.80;97.10
6664;DHT22;58749;48.022;10.922;2022-09-09T00:22:18;17.80;97.30
6664;DHT22;58749;48.022;10.922;2022-09-09T00:24:51;17.80;97.30
6664;DHT22;58749;48.022;10.922;2022-09-09T00:27:25;17.90;97.30
6664;DHT22;58749;48.022;10.922;2022-09-09T00:29:59;18.00;97.40
6664;DHT22;58749;48.022;10.922;2022-09-09T00:32:30;18.00;97.40
6664;DHT22;58749;48.022;10.922;2022-09-09T00:35:03;18.10;97.40
6664;DHT22;58749;48.022;10.922;2022-09-09T00:37:38;18.10;97.40
6664;DHT22;58749;48.022;10.922;2022-09-09T00:40:18;18.10;97.30
6664;DHT22;58749;48.022;10.922;2022-09-09T00:42:54;18.20;97.30
6664;DHT22;58749;48.022;10.922;2022-09-09T00:45:52;18.20;97.20
6664;DHT22;58749;48.022;10.922;2022-09-09T00:48:28;18.20;97.20
6664;DHT22;58749;48.022;10.922;2022-09-09T00:51:05;18.20;97.20
6664;DHT22;58749;48.022;10.922;2022-09-09T00:56:26;18.20;97.20
6664;DHT22;58749;48.022;10.922;2022-09-09T00:59:03;18.30;97.30
6664;DHT22;58749;48.022;10.922;2022-09-09T01:01:33;18.20;97.30
6664;DHT22;58749;48.022;10.922;2022-09-09T01:04:07;18.20;97.30
6664;DHT22;58749;48.022;10.922;2022-09-09T01:06:37;18.20;97.40
6664;DHT22;58749;48.022;10.922;2022-09-09T01:09:15;18.20;97.30
6664;DHT22;58749;48.022;10.922;2022-09-09T01:11:55;18.20;97.40
6664;DHT22;58749;48.022;10.922;2022-09-09T01:14:35;18.20;97.40
6664;DHT22;58749;48.022;10.922;2022-09-09T01:17:11;18.20;97.40
6664;DHT22;58749;48.022;10.922;2022-09-09T01:19:57;18.20;97.40
6664;DHT22;58749;48.022;10.922;2022-09-09T01:22:33;18.20;97.40
6664;DHT22;58749;48.022;10.922;2022-09-09T01:25:20;18.20;97.30
6664;DHT22;58749;48.022;10.922;2022-09-09T01:27:56;18.20;97.40
6664;DHT22;58749;48.022;10.922;2022-09-09T01:30:26;18.20;97.40
6664;DHT22;58749;48.022;10.922;2022-09-09T01:32:56;18.10;97.40
6664;DHT22;58749;48.022;10.922;2022-09-09T01:35:35;18.20;97.40
6664;DHT22;58749;48.022;10.922;2022-09-09T01:38:05;18.10;97.40
6664;DHT22;58749;48.022;10.922;2022-09-09T01:40:33;18.10;97.40
6664;DHT22;58749;48.022;10.922;2022-09-09T01:43:03;18.20;97.50
6664;DHT22;58749;48.022;10.922;2022-09-09T01:45:33;18.20;97.50
6664;DHT22;58749;48.022;10.922;2022-09-09T01:48:02;18.10;97.40
6664;DHT22;58749;48.022;10.922;2022-09-09T01:50:31;18.10;97.40
6664;DHT22;58749;48.022;10.922;2022-09-09T01:53:01;18.10;97.40
6664;DHT22;58749;48.022;10.922;2022-09-09T01:55:32;18.10;97.40
6664;DHT22;58749;48.022;10.922;2022-09-09T01:58:12;18.10;97.40
6664;DHT22;58749;48.022;10.922;2022-09-09T02:00:45;18.10;97.40
6664;DHT22;58749;48.022;10.922;2022-09-09T02:03:22;18.10;97.50
6664;DHT22;58749;48.022;10.922;2022-09-09T02:05:59;18.10;97.50
6664;DHT22;58749;48.022;10.922;2022-09-09T02:08:33;18.00;97.50
6664;DHT22;58749;48.022;10.922;2022-09-09T02:11:06;18.00;97.50
6664;DHT22;58749;48.022;10.922;2022-09-09T02:13:38;18.00;97.40
6664;DHT22;58749;48.022;10.922;2022-09-09T02:16:09;18.00;97.40
6664;DHT22;58749;48.022;10.922;2022-09-09T02:18:42;18.00;97.40
6664;DHT22;58749;48.022;10.922;2022-09-09T02:21:13;18.00;97.40
6664;DHT22;58749;48.022;10.922;2022-09-09T02:23:42;18.00;97.30
6664;DHT22;58749;48.022;10.922;2022-09-09T02:26:12;17.90;97.30
6664;DHT22;58749;48.022;10.922;2022-09-09T02:28:49;17.90;97.40
6664;DHT22;58749;48.022;10.922;2022-09-09T02:31:19;17.90;97.50
6664;DHT22;58749;48.022;10.922;2022-09-09T02:33:51;17.90;97.60
6664;DHT22;58749;48.022;10.922;2022-09-09T02:36:22;17.90;97.60
6664;DHT22;58749;48.022;10.922;2022-09-09T02:38:52;17.90;97.60
6664;DHT22;58749;48.022;10.922;2022-09-09T02:41:24;17.90;97.60
6664;DHT22;58749;48.022;10.922;2022-09-09T02:43:55;17.80;97.60
6664;DHT22;58749;48.022;10.922;2022-09-09T02:46:32;17.90;97.60
6664;DHT22;58749;48.022;10.922;2022-09-09T02:49:09;17.80;97.60
6664;DHT22;58749;48.022;10.922;2022-09-09T02:51:45;17.80;97.70
6664;DHT22;58749;48.022;10.922;2022-09-09T02:54:22;17.80;97.70
6664;DHT22;58749;48.022;10.922;2022-09-09T02:56:53;17.80;97.80
6664;DHT22;58749;48.022;10.922;2022-09-09T02:59:25;17.80;97.80
6664;DHT22;58749;48.022;10.922;2022-09-09T03:01:53;17.70;97.80
6664;DHT22;58749;48.022;10.922;2022-09-09T03:04:21;17.70;97.80
6664;DHT22;58749;48.022;10.922;2022-09-09T03:06:51;17.70;97.80
6664;DHT22;58749;48.022;10.922;2022-09-09T03:09:18;17.70;97.80
6664;DHT22;58749;48.022;10.922;2022-09-09T03:11:47;17.70;97.80
6664;DHT22;58749;48.022;10.922;2022-09-09T03:14:16;17.70;97.90
6664;DHT22;58749;48.022;10.922;2022-09-09T03:16:49;17.70;97.90
6664;DHT22;58749;48.022;10.922;2022-09-09T03:19:17;17.70;98.00
6664;DHT22;58749;48.022;10.922;2022-09-09T03:21:45;17.70;98.10
6664;DHT22;58749;48.022;10.922;2022-09-09T03:24:13;17.60;98.20
6664;DHT22;58749;48.022;10.922;2022-09-09T03:26:42;17.60;98.20
6664;DHT22;58749;48.022;10.922;2022-09-09T03:29:11;17.60;98.20
6664;DHT22;58749;48.022;10.922;2022-09-09T03:31:40;17.60;98.20
6664;DHT22;58749;48.022;10.922;2022-09-09T03:34:11;17.60;98.30
6664;DHT22;58749;48.022;10.922;2022-09-09T03:36:40;17.60;98.70
6664;DHT22;58749;48.022;10.922;2022-09-09T03:39:08;17.60;98.40
6664;DHT22;58749;48.022;10.922;2022-09-09T03:41:37;17.50;98.80
6664;DHT22;58749;48.022;10.922;2022-09-09T03:44:05;17.50;98.50
6664;DHT22;58749;48.022;10.922;2022-09-09T03:46:33;17.50;98.50
6664;DHT22;58749;48.022;10.922;2022-09-09T03:49:01;17.50;98.60
6664;DHT22;58749;48.022;10.922;2022-09-09T03:51:31;17.40;98.60
6664;DHT22;58749;48.022;10.922;2022-09-09T03:54:03;17.40;98.60
6664;DHT22;58749;48.022;10.922;2022-09-09T03:56:31;17.40;98.60
6664;DHT22;58749;48.022;10.922;2022-09-09T03:58:59;17.40;98.70
6664;DHT22;58749;48.022;10.922;2022-09-09T04:01:28;17.40;98.70
6664;DHT22;58749;48.022;10.922;2022-09-09T04:03:56;17.40;98.70
6664;DHT22;58749;48.022;10.922;2022-09-09T04:06:25;17.40;98.70
6664;DHT22;58749;48.022;10.922;2022-09-09T04:08:54;17.40;98.70
6664;DHT22;58749;48.022;10.922;2022-09-09T04:11:23;17.40;98.70
6664;DHT22;58749;48.022;10.922;2022-09-09T04:13:51;17.40;98.80
6664;DHT22;58749;48.022;10.922;2022-09-09T04:16:19;17.40;98.80
6664;DHT22;58749;48.022;10.922;2022-09-09T04:18:47;17.40;98.80
6664;DHT22;58749;48.022;10.922;2022-09-09T04:21:15;17.40;98.90
6664;DHT22;58749;48.022;10.922;2022-09-09T04:23:44;17.40;99.00
6664;DHT22;58749;48.022;10.922;2022-09-09T04:26:13;17.40;99.00
6664;DHT22;58749;48.022;10.922;2022-09-09T04:28:41;17.40;99.10
6664;DHT22;58749;48.022;10.922;2022-09-09T04:31:15;17.40;99.10
6664;DHT22;58749;48.022;10.922;2022-09-09T04:33:43;17.40;99.10
6664;DHT22;58749;48.022;10.922;2022-09-09T04:36:11;17.40;99.10
6664;DHT22;58749;48.022;10.922;2022-09-09T04:38:39;17.40;99.10
6664;DHT22;58749;48.022;10.922;2022-09-09T04:41:08;17.40;99.20
6664;DHT22;58749;48.022;10.922;2022-09-09T04:43:39;17.40;99.20
6664;DHT22;58749;48.022;10.922;2022-09-09T04:46:07;17.40;99.20
6664;DHT22;58749;48.022;10.922;2022-09-09T04:48:35;17.40;99.30
6664;DHT22;58749;48.022;10.922;2022-09-09T04:51:05;17.30;99.30
6664;DHT22;58749;48.022;10.922;2022-09-09T04:53:33;17.40;99.40
6664;DHT22;58749;48.022;10.922;2022-09-09T04:56:03;17.30;99.40
6664;DHT22;58749;48.022;10.922;2022-09-09T04:58:31;17.30;99.60
6664;DHT22;58749;48.022;10.922;2022-09-09T05:01:08;17.30;99.70
6664;DHT22;58749;48.022;10.922;2022-09-09T05:03:37;17.30;99.80
6664;DHT22;58749;48.022;10.922;2022-09-09T05:06:06;17.30;99.70
6664;DHT22;58749;48.022;10.922;2022-09-09T05:08:35;17.40;99.70
6664;DHT22;58749;48.022;10.922;2022-09-09T05:11:04;17.40;99.70
6664;DHT22;58749;48.022;10.922;2022-09-09T05:13:32;17.40;99.80
6664;DHT22;58749;48.022;10.922;2022-09-09T05:16:08;17.40;99.70
6664;DHT22;58749;48.022;10.922;2022-09-09T05:18:38;17.50;99.70
6664;DHT22;58749;48.022;10.922;2022-09-09T05:21:06;17.40;99.70
6664;DHT22;58749;48.022;10.922;2022-09-09T05:23:34;17.40;99.90
6664;DHT22;58749;48.022;10.922;2022-09-09T05:26:04;17.40;99.90
6664;DHT22;58749;48.022;10.922;2022-09-09T05:28:34;17.40;99.90
6664;DHT22;58749;48.022;10.922;2022-09-09T05:31:04;17.40;99.90
6664;DHT22;58749;48.022;10.922;2022-09-09T05:33:36;17.40;99.90
6664;DHT22;58749;48.022;10.922;2022-09-09T05:36:06;17.50;99.90
6664;DHT22;58749;48.022;10.922;2022-09-09T05:38:35;17.50;99.90
6664;DHT22;58749;48.022;10.922;2022-09-09T05:41:03;17.50;99.90
6664;DHT22;58749;48.022;10.922;2022-09-09T05:43:32;17.50;99.90
6664;DHT22;58749;48.022;10.922;2022-09-09T05:46:03;17.50;99.90
6664;DHT22;58749;48.022;10.922;2022-09-09T05:48:33;17.50;99.90
6664;DHT22;58749;48.022;10.922;2022-09-09T05:51:05;17.50;99.90
6664;DHT22;58749;48.022;10.922;2022-09-09T05:53:34;17.50;99.90
6664;DHT22;58749;48.022;10.922;2022-09-09T05:56:04;17.40;99.90
6664;DHT22;58749;48.022;10.922;2022-09-09T05:58:32;17.50;99.90
6664;DHT22;58749;48.022;10.922;2022-09-09T06:01:02;17.50;99.90
6664;DHT22;58749;48.022;10.922;2022-09-09T06:03:30;17.40;99.90
6664;DHT22;58749;48.022;10.922;2022-09-09T06:05:59;17.40;99.90
6664;DHT22;58749;48.022;10.922;2022-09-09T06:08:29;17.40;99.90
6664;DHT22;58749;48.022;10.922;2022-09-09T06:11:02;17.40;99.90
6664;DHT22;58749;48.022;10.922;2022-09-09T06:13:31;17.40;99.90
6664;DHT22;58749;48.022;10.922;2022-09-09T06:15:59;17.40;99.90
6664;DHT22;58749;48.022;10.922;2022-09-09T06:18:28;17.40;99.90
6664;DHT22;58749;48.022;10.922;2022-09-09T06:20:57;17.40;99.90
6664;DHT22;58749;48.022;10.922;2022-09-09T06:23:26;17.40;99.90
6664;DHT22;58749;48.022;10.922;2022-09-09T06:26:03;17.40;99.90
6664;DHT22;58749;48.022;10.922;2022-09-09T06:28:32;17.40;99.90
6664;DHT22;58749;48.022;10.922;2022-09-09T06:31:01;17.40;99.90
6664;DHT22;58749;48.022;10.922;2022-09-09T06:33:33;17.50;99.90
6664;DHT22;58749;48.022;10.922;2022-09-09T06:36:02;17.50;99.90
6664;DHT22;58749;48.022;10.922;2022-09-09T06:38:32;17.60;99.90
6664;DHT22;58749;48.022;10.922;2022-09-09T06:41:02;17.60;99.90
6664;DHT22;58749;48.022;10.922;2022-09-09T06:43:30;17.60;99.90
6664;DHT22;58749;48.022;10.922;2022-09-09T06:45:59;17.70;99.90
6664;DHT22;58749;48.022;10.922;2022-09-09T06:48:28;17.70;99.90
6664;DHT22;58749;48.022;10.922;2022-09-09T06:51:04;17.60;99.90
6664;DHT22;58749;48.022;10.922;2022-09-09T06:53:33;17.70;99.90
6664;DHT22;58749;48.022;10.922;2022-09-09T06:56:18;17.70;99.90
6664;DHT22;58749;48.022;10.922;2022-09-09T06:58:47;17.60;99.90
6664;DHT22;58749;48.022;10.922;2022-09-09T07:01:16;17.60;99.90
6664;DHT22;58749;48.022;10.922;2022-09-09T07:03:47;17.60;99.90
6664;DHT22;58749;48.022;10.922;2022-09-09T07:06:18;17.60;99.90
6664;DHT22;58749;48.022;10.922;2022-09-09T07:08:50;17.60;99.90
6664;DHT22;58749;48.022;10.922;2022-09-09T07:11:25;17.60;99.90
6664;DHT22;58749;48.022;10.922;2022-09-09T07:13:54;17.60;99.90
6664;DHT22;58749;48.022;10.922;2022-09-09T07:16:22;17.50;99.90
6664;DHT22;58749;48.022;10.922;2022-09-09T07:18:51;17.40;99.90
6664;DHT22;58749;48.022;10.922;2022-09-09T07:21:25;17.40;99.90
6664;DHT22;58749;48.022;10.922;2022-09-09T07:23:54;17.40;99.90
6664;DHT22;58749;48.022;10.922;2022-09-09T07:26:25;17.40;99.90
6664;DHT22;58749;48.022;10.922;2022-09-09T07:28:54;17.50;99.90
6664;DHT22;58749;48.022;10.922;2022-09-09T07:31:24;17.50;99.90
6664;DHT22;58749;48.022;10.922;2022-09-09T07:33:53;17.60;99.90
6664;DHT22;58749;48.022;10.922;2022-09-09T07:36:23;17.60;99.90
6664;DHT22;58749;48.022;10.922;2022-09-09T07:39:00;17.60;99.90
6664;DHT22;58749;48.022;10.922;2022-09-09T07:41:32;17.60;99.90
6664;DHT22;58749;48.022;10.922;2022-09-09T07:44:05;17.60;99.90
6664;DHT22;58749;48.022;10.922;2022-09-09T07:46:34;17.70;99.90
6664;DHT22;58749;48.022;10.922;2022-09-09T07:49:03;17.80;99.90
6664;DHT22;58749;48.022;10.922;2022-09-09T07:51:32;17.80;99.90
6664;DHT22;58749;48.022;10.922;2022-09-09T07:54:02;17.80;99.90
6664;DHT22;58749;48.022;10.922;2022-09-09T07:56:32;17.80;99.90
6664;DHT22;58749;48.022;10.922;2022-09-09T07:59:20;17.90;99.90
6664;DHT22;58749;48.022;10.922;2022-09-09T08:02:08;18.00;99.90
6664;DHT22;58749;48.022;10.922;2022-09-09T08:04:52;18.00;99.90
6664;DHT22;58749;48.022;10.922;2022-09-09T08:07:20;18.00;99.90
6664;DHT22;58749;48.022;10.922;2022-09-09T08:09:49;18.00;99.90
6664;DHT22;58749;48.022;10.922;2022-09-09T08:12:18;18.00;99.90
6664;DHT22;58749;48.022;10.922;2022-09-09T08:14:46;18.10;99.90
6664;DHT22;58749;48.022;10.922;2022-09-09T08:17:15;18.10;99.90
6664;DHT22;58749;48.022;10.922;2022-09-09T08:19:43;18.00;99.90
6664;DHT22;58749;48.022;10.922;2022-09-09T08:22:11;18.00;99.90
6664;DHT22;58749;48.022;10.922;2022-09-09T08:24:39;18.00;99.90
6664;DHT22;58749;48.022;10.922;2022-09-09T08:27:07;18.00;99.90
6664;DHT22;58749;48.022;10.922;2022-09-09T08:29:37;17.90;99.90
6664;DHT22;58749;48.022;10.922;2022-09-09T08:32:05;17.90;99.90
6664;DHT22;58749;48.022;10.922;2022-09-09T08:34:33;17.80;99.90
6664;DHT22;58749;48.022;10.922;2022-09-09T08:37:07;17.80;99.90
6664;DHT22;58749;48.022;10.922;2022-09-09T08:39:35;17.80;99.90
6664;DHT22;58749;48.022;10.922;2022-09-09T08:42:22;17.70;99.90
6664;DHT22;58749;48.022;10.922;2022-09-09T08:45:11;17.80;99.90
6664;DHT22;58749;48.022;10.922;2022-09-09T08:47:46;17.70;99.90
6664;DHT22;58749;48.022;10.922;2022-09-09T08:50:21;17.70;99.90
6664;DHT22;58749;48.022;10.922;2022-09-09T08:53:03;17.70;99.90
6664;DHT22;58749;48.022;10.922;2022-09-09T08:55:38;17.60;99.90
6664;DHT22;58749;48.022;10.922;2022-09-09T08:58:12;17.70;99.90
6664;DHT22;58749;48.022;10.922;2022-09-09T09:00:47;17.70;99.90
6664;DHT22;58749;48.022;10.922;2022-09-09T09:03:28;17.70;99.90
6664;DHT22;58749;48.022;10.922;2022-09-09T09:06:06;17.60;99.90
6664;DHT22;58749;48.022;10.922;2022-09-09T09:08:43;17.60;99.90
6664;DHT22;58749;48.022;10.922;2022-09-09T09:11:13;17.60;99.90
6664;DHT22;58749;48.022;10.922;2022-09-09T09:13:43;17.70;99.90
6664;DHT22;58749;48.022;10.922;2022-09-09T09:16:19;17.80;99.90
6664;DHT22;58749;48.022;10.922;2022-09-09T09:18:51;17.80;99.90
6664;DHT22;58749;48.022;10.922;2022-09-09T09:21:28;17.90;99.90
6664;DHT22;58749;48.022;10.922;2022-09-09T09:24:01;17.90;99.90
6664;DHT22;58749;48.022;10.922;2022-09-09T09:26:35;17.90;99.90
6664;DHT22;58749;48.022;10.922;2022-09-09T09:29:09;17.90;99.90
6664;DHT22;58749;48.022;10.922;2022-09-09T09:31:43;17.90;99.90
6664;DHT22;58749;48.022;10.922;2022-09-09T09:34:11;17.90;99.90
6664;DHT22;58749;48.022;10.922;2022-09-09T09:36:41;17.90;99.90
6664;DHT22;58749;48.022;10.922;2022-09-09T09:39:22;17.90;99.90
6664;DHT22;58749;48.022;10.922;2022-09-09T09:42:12;17.90;99.90
6664;DHT22;58749;48.022;10.922;2022-09-09T09:44:44;17.90;99.90
6664;DHT22;58749;48.022;10.922;2022-09-09T09:47:15;17.90;99.90
6664;DHT22;58749;48.022;10.922;2022-09-09T09:49:52;17.90;99.90
6664;DHT22;58749;48.022;10.922;2022-09-09T09:52:22;17.80;99.90
6664;DHT22;58749;48.022;10.922;2022-09-09T09:54:52;17.80;99.90
6664;DHT22;58749;48.022;10.922;2022-09-09T09:57:25;17.80;99.90
6664;DHT22;58749;48.022;10.922;2022-09-09T10:00:03;17.80;99.90
6664;DHT22;58749;48.022;10.922;2022-09-09T10:02:39;17.80;99.90
6664;DHT22;58749;48.022;10.922;2022-09-09T10:05:14;17.80;99.90
6664;DHT22;58749;48.022;10.922;2022-09-09T10:07:42;17.90;99.90
6664;DHT22;58749;48.022;10.922;2022-09-09T10:10:20;17.90;99.90
6664;DHT22;58749;48.022;10.922;2022-09-09T10:12:57;17.90;99.90
6664;DHT22;58749;48.022;10.922;2022-09-09T10:15:38;17.90;99.90
6664;DHT22;58749;48.022;10.922;2022-09-09T10:18:29;17.90;99.90
6664;DHT22;58749;48.022;10.922;2022-09-09T10:21:06;18.00;99.90
6664;DHT22;58749;48.022;10.922;2022-09-09T10:23:47;18.10;99.90
6664;DHT22;58749;48.022;10.922;2022-09-09T10:26:32;18.10;99.50
6664;DHT22;58749;48.022;10.922;2022-09-09T10:29:15;18.20;99.30
6664;DHT22;58749;48.022;10.922;2022-09-09T10:31:56;18.20;99.30
6664;DHT22;58749;48.022;10.922;2022-09-09T10:34:55;18.30;99.40
6664;DHT22;58749;48.022;10.922;2022-09-09T10:37:36;18.30;99.40
6664;DHT22;58749;48.022;10.922;2022-09-09T10:40:26;18.30;99.40
6664;DHT22;58749;48.022;10.922;2022-09-09T10:43:03;18.30;99.50
6664;DHT22;58749;48.022;10.922;2022-09-09T10:45:45;18.40;99.30
6664;DHT22;58749;48.022;10.922;2022-09-09T10:48:36;18.40;99.30
6664;DHT22;58749;48.022;10.922;2022-09-09T10:51:21;18.50;99.40
6664;DHT22;58749;48.022;10.922;2022-09-09T10:54:00;18.60;99.30
6664;DHT22;58749;48.022;10.922;2022-09-09T10:56:33;18.70;99.50
6664;DHT22;58749;48.022;10.922;2022-09-09T10:59:05;18.90;98.80
6664;DHT22;58749;48.022;10.922;2022-09-09T11:01:41;19.10;98.10
6664;DHT22;58749;48.022;10.922;2022-09-09T11:04:16;19.10;97.50
6664;DHT22;58749;48.022;10.922;2022-09-09T11:06:49;19.20;97.40
6664;DHT22;58749;48.022;10.922;2022-09-09T11:09:24;19.20;97.40
6664;DHT22;58749;48.022;10.922;2022-09-09T11:11:55;19.00;96.30
6664;DHT22;58749;48.022;10.922;2022-09-09T11:14:28;19.00;97.20
6664;DHT22;58749;48.022;10.922;2022-09-09T11:17:06;18.90;97.10
6664;DHT22;58749;48.022;10.922;2022-09-09T11:19:39;18.90;97.00
6664;DHT22;58749;48.022;10.922;2022-09-09T11:22:17;18.80;97.10
6664;DHT22;58749;48.022;10.922;2022-09-09T11:24:49;18.70;97.10
6664;DHT22;58749;48.022;10.922;2022-09-09T11:27:21;18.60;98.30
6664;DHT22;58749;48.022;10.922;2022-09-09T11:30:11;18.40;98.30
6664;DHT22;58749;48.022;10.922;2022-09-09T11:36:24;18.30;99.50
6664;DHT22;58749;48.022;10.922;2022-09-09T11:39:02;18.20;99.90
6664;DHT22;58749;48.022;10.922;2022-09-09T11:41:36;18.20;99.90
6664;DHT22;58749;48.022;10.922;2022-09-09T11:44:10;18.30;99.90
6664;DHT22;58749;48.022;10.922;2022-09-09T11:46:39;18.40;99.90
6664;DHT22;58749;48.022;10.922;2022-09-09T11:49:26;18.40;99.90
6664;DHT22;58749;48.022;10.922;2022-09-09T11:51:55;18.60;99.90
6664;DHT22;58749;48.022;10.922;2022-09-09T11:54:30;18.70;99.80
6664;DHT22;58749;48.022;10.922;2022-09-09T11:57:29;18.70;99.10
6664;DHT22;58749;48.022;10.922;2022-09-09T11:59:58;18.90;99.20
6664;DHT22;58749;48.022;10.922;2022-09-09T12:02:28;18.90;99.10
6664;DHT22;58749;48.022;10.922;2022-09-09T12:05:00;18.80;99.00
6664;DHT22;58749;48.022;10.922;2022-09-09T12:07:34;18.70;98.80
6664;DHT22;58749;48.022;10.922;2022-09-09T12:10:20;18.60;99.30
6664;DHT22;58749;48.022;10.922;2022-09-09T12:12:50;18.50;99.40
6664;DHT22;58749;48.022;10.922;2022-09-09T12:15:25;18.50;99.30
6664;DHT22;58749;48.022;10.922;2022-09-09T12:17:56;18.60;99.60
6664;DHT22;58749;48.022;10.922;2022-09-09T12:20:33;18.60;99.20
6664;DHT22;58749;48.022;10.922;2022-09-09T12:23:19;18.60;99.20
6664;DHT22;58749;48.022;10.922;2022-09-09T12:26:10;18.60;99.50
6664;DHT22;58749;48.022;10.922;2022-09-09T12:28:54;18.80;99.10
6664;DHT22;58749;48.022;10.922;2022-09-09T12:31:27;18.90;98.80
6664;DHT22;58749;48.022;10.922;2022-09-09T12:34:10;18.90;98.80
6664;DHT22;58749;48.022;10.922;2022-09-09T12:36:40;19.00;98.80
6664;DHT22;58749;48.022;10.922;2022-09-09T12:39:15;19.10;98.40
6664;DHT22;58749;48.022;10.922;2022-09-09T12:41:53;19.10;97.90
6664;DHT22;58749;48.022;10.922;2022-09-09T12:44:25;19.20;98.20
6664;DHT22;58749;48.022;10.922;2022-09-09T12:46:56;19.20;97.70
6664;DHT22;58749;48.022;10.922;2022-09-09T12:49:30;19.30;97.70
6664;DHT22;58749;48.022;10.922;2022-09-09T12:52:03;19.40;98.00
6664;DHT22;58749;48.022;10.922;2022-09-09T12:54:34;19.60;98.20
6664;DHT22;58749;48.022;10.922;2022-09-09T12:57:04;19.70;97.10
6664;DHT22;58749;48.022;10.922;2022-09-09T12:59:37;20.00;96.40
6664;DHT22;58749;48.022;10.922;2022-09-09T13:02:20;20.10;96.10
6664;DHT22;58749;48.022;10.922;2022-09-09T13:04:49;20.10;96.00
6664;DHT22;58749;48.022;10.922;2022-09-09T13:07:18;20.10;95.50
6664;DHT22;58749;48.022;10.922;2022-09-09T13:09:47;19.90;94.10
6664;DHT22;58749;48.022;10.922;2022-09-09T13:12:19;19.80;94.90
6664;DHT22;58749;48.022;10.922;2022-09-09T13:14:51;19.80;95.80
6664;DHT22;58749;48.022;10.922;2022-09-09T13:17:21;19.80;95.70
6664;DHT22;58749;48.022;10.922;2022-09-09T13:19:51;19.80;95.60
6664;DHT22;58749;48.022;10.922;2022-09-09T13:22:24;19.70;95.20
6664;DHT22;58749;48.022;10.922;2022-09-09T13:25:03;19.60;94.60
6664;DHT22;58749;48.022;10.922;2022-09-09T13:27:34;19.70;95.90
6664;DHT22;58749;48.022;10.922;2022-09-09T13:30:20;19.80;95.80
6664;DHT22;58749;48.022;10.922;2022-09-09T13:33:00;19.90;95.20
6664;DHT22;58749;48.022;10.922;2022-09-09T13:35:29;19.90;94.90
6664;DHT22;58749;48.022;10.922;2022-09-09T13:37:57;19.90;94.80
6664;DHT22;58749;48.022;10.922;2022-09-09T13:40:26;19.90;94.50
6664;DHT22;58749;48.022;10.922;2022-09-09T13:42:57;19.90;94.40
6664;DHT22;58749;48.022;10.922;2022-09-09T13:45:26;19.80;94.80
6664;DHT22;58749;48.022;10.922;2022-09-09T13:47:55;19.70;94.70
6664;DHT22;58749;48.022;10.922;2022-09-09T13:50:25;19.70;95.00
6664;DHT22;58749;48.022;10.922;2022-09-09T13:52:55;19.80;95.30
6664;DHT22;58749;48.022;10.922;2022-09-09T13:55:26;19.90;95.30
6664;DHT22;58749;48.022;10.922;2022-09-09T13:57:57;19.90;94.50
6664;DHT22;58749;48.022;10.922;2022-09-09T14:00:29;19.80;93.30
6664;DHT22;58749;48.022;10.922;2022-09-09T14:02:58;19.80;93.80
6664;DHT22;58749;48.022;10.922;2022-09-09T14:05:30;19.80;94.20
6664;DHT22;58749;48.022;10.922;2022-09-09T14:07:59;19.90;94.00
6664;DHT22;58749;48.022;10.922;2022-09-09T14:10:29;19.90;94.30
6664;DHT22;58749;48.022;10.922;2022-09-09T14:12:59;19.90;94.40
6664;DHT22;58749;48.022;10.922;2022-09-09T14:15:28;20.00;94.50
6664;DHT22;58749;48.022;10.922;2022-09-09T14:17:56;19.80;93.70
6664;DHT22;58749;48.022;10.922;2022-09-09T14:20:25;19.90;93.90
6664;DHT22;58749;48.022;10.922;2022-09-09T14:22:53;19.90;94.20
6664;DHT22;58749;48.022;10.922;2022-09-09T14:25:28;20.10;94.50
6664;DHT22;58749;48.022;10.922;2022-09-09T14:27:59;20.20;94.00
6664;DHT22;58749;48.022;10.922;2022-09-09T14:30:28;20.10;93.90
6664;DHT22;58749;48.022;10.922;2022-09-09T14:32:56;20.00;94.60
6664;DHT22;58749;48.022;10.922;2022-09-09T14:35:24;20.00;95.40
6664;DHT22;58749;48.022;10.922;2022-09-09T14:37:53;20.00;95.60
6664;DHT22;58749;48.022;10.922;2022-09-09T14:40:21;20.00;95.60
6664;DHT22;58749;48.022;10.922;2022-09-09T14:42:49;20.00;94.90
6664;DHT22;58749;48.022;10.922;2022-09-09T14:45:19;19.80;93.70
6664;DHT22;58749;48.022;10.922;2022-09-09T14:47:49;19.60;93.90
6664;DHT22;58749;48.022;10.922;2022-09-09T14:50:17;19.60;94.00
6664;DHT22;58749;48.022;10.922;2022-09-09T14:52:46;19.60;94.20
6664;DHT22;58749;48.022;10.922;2022-09-09T14:55:14;19.60;94.70
6664;DHT22;58749;48.022;10.922;2022-09-09T14:57:43;19.60;95.30
6664;DHT22;58749;48.022;10.922;2022-09-09T15:00:12;19.60;95.20
6664;DHT22;58749;48.022;10.922;2022-09-09T15:02:42;19.60;95.50
6664;DHT22;58749;48.022;10.922;2022-09-09T15:05:10;19.60;95.80
6664;DHT22;58749;48.022;10.922;2022-09-09T15:07:38;19.50;95.90
6664;DHT22;58749;48.022;10.922;2022-09-09T15:10:07;19.40;95.80
6664;DHT22;58749;48.022;10.922;2022-09-09T15:12:35;19.40;96.00
6664;DHT22;58749;48.022;10.922;2022-09-09T15:15:05;19.40;96.50
6664;DHT22;58749;48.022;10.922;2022-09-09T15:17:34;19.40;97.00
6664;DHT22;58749;48.022;10.922;2022-09-09T15:20:04;19.50;97.00
6664;DHT22;58749;48.022;10.922;2022-09-09T15:22:33;19.60;97.20
6664;DHT22;58749;48.022;10.922;2022-09-09T15:25:04;19.70;96.60
6664;DHT22;58749;48.022;10.922;2022-09-09T15:27:32;19.70;96.50
6664;DHT22;58749;48.022;10.922;2022-09-09T15:30:01;19.70;96.30
6664;DHT22;58749;48.022;10.922;2022-09-09T15:32:29;19.70;96.60
6664;DHT22;58749;48.022;10.922;2022-09-09T15:34:57;19.60;97.50
6664;DHT22;58749;48.022;10.922;2022-09-09T15:37:27;19.70;96.90
6664;DHT22;58749;48.022;10.922;2022-09-09T15:39:55;19.80;96.80
6664;DHT22;58749;48.022;10.922;2022-09-09T15:42:25;20.00;96.40
6664;DHT22;58749;48.022;10.922;2022-09-09T15:44:53;20.10;96.40
6664;DHT22;58749;48.022;10.922;2022-09-09T15:47:21;20.20;95.80
6664;DHT22;58749;48.022;10.922;2022-09-09T15:49:49;20.20;95.10
6664;DHT22;58749;48.022;10.922;2022-09-09T15:52:17;20.20;94.10
6664;DHT22;58749;48.022;10.922;2022-09-09T15:54:47;20.20;94.30
6664;DHT22;58749;48.022;10.922;2022-09-09T15:57:15;20.10;93.20
6664;DHT22;58749;48.022;10.922;2022-09-09T15:59:43;20.00;92.40
6664;DHT22;58749;48.022;10.922;2022-09-09T16:02:11;19.80;92.30
6664;DHT22;58749;48.022;10.922;2022-09-09T16:04:40;19.70;92.00
6664;DHT22;58749;48.022;10.922;2022-09-09T16:07:08;19.70;92.90
6664;DHT22;58749;48.022;10.922;2022-09-09T16:09:36;19.70;92.80